sensor_id;sensor_type;location;lat;lon;timestamp;pressure;altitude;pressure_sealevel;temperature;humidity
79780;BME280;69258;52.050;10.334;2023-06-10T00:02:13;99766.75;;;23.53;50.32
79780;BME280;69258;52.050;10.334;2023-06-10T00:17:14;99755.41;;;23.51;50.64
79780;BME280;69258;52.050;10.334;2023-06-10T00:32:16;99772.81;;;23.48;50.49
79780;BME280;69258;52.050;10.334;2023-06-10T00:47:18;99779.22;;;23.47;50.56
79780;BME280;69258;52.050;10.334;2023-06-10T01:02:20;99763.28;;;23.46;50.70
79780;BME280;69258;52.050;10.334;2023-06-10T01:17:23;99771.81;;;23.43;50.25
79780;BME280;69258;52.050;10.334;2023-06-10T01:32:36;99778.22;;;23.42;50.71
79780;BME280;69258;52.050;10.334;2023-06-10T01:47:39;99782.78;;;23.41;50.55
79780;BME280;69258;52.050;10.334;2023-06-10T02:02:41;99790.22;;;23.39;50.26
79780;BME280;69258;52.050;10.334;2023-06-10T02:17:43;99776.41;;;23.36;50.05
79780;BME280;69258;52.050;10.334;2023-06-10T02:32:44;99802.25;;;23.37;50.01
79780;BME280;69258;52.050;10.334;2023-06-10T02:47:46;99799.78;;;23.35;49.98
79780;BME280;69258;52.050;10.334;2023-06-10T03:02:48;99830.19;;;23.36;50.30
79780;BME280;69258;52.050;10.334;2023-06-10T03:17:50;99821.09;;;23.30;50.08
79780;BME280;69258;52.050;10.334;2023-06-10T03:32:52;99827.09;;;23.32;50.26
79780;BME280;69258;52.050;10.334;2023-06-10T03:47:54;99827.09;;;23.32;50.22
79780;BME280;69258;52.050;10.334;2023-06-10T04:02:56;99825.44;;;23.31;50.07
79780;BME280;69258;52.050;10.334;2023-06-10T04:17:57;99849.91;;;23.30;49.74
79780;BME280;69258;52.050;10.334;2023-06-10T04:32:59;99851.50;;;23.31;50.13
79780;BME280;69258;52.050;10.334;2023-06-10T04:48:01;99860.41;;;23.31;49.24
79780;BME280;69258;52.050;10.334;2023-06-10T05:03:03;99852.13;;;23.33;49.80
79780;BME280;69258;52.050;10.334;2023-06-10T05:18:05;99853.00;;;23.27;49.87
79780;BME280;69258;52.050;10.334;2023-06-10T05:33:07;99856.75;;;23.26;49.96
79780;BME280;69258;52.050;10.334;2023-06-10T05:48:09;99851.38;;;23.26;49.30
79780;BME280;69258;52.050;10.334;2023-06-10T06:03:10;99847.22;;;23.23;49.83
79780;BME280;69258;52.050;10.334;2023-06-10T06:18:12;99850.97;;;23.22;49.64
79780;BME280;69258;52.050;10.334;2023-06-10T06:33:14;99861.50;;;23.24;50.00
79780;BME280;69258;52.050;10.334;2023-06-10T06:48:16;99850.97;;;23.22;49.35
79780;BME280;69258;52.050;10.334;2023-06-10T07:03:18;99866.03;;;23.23;50.05
79780;BME280;69258;52.050;10.334;2023-06-10T07:18:20;99878.66;;;23.23;49.82
79780;BME280;69258;52.050;10.334;2023-06-10T07:33:21;99890.03;;;23.25;49.42
79780;BME280;69258;52.050;10.334;2023-06-10T07:48:23;99881.78;;;23.26;49.56
79780;BME280;69258;52.050;10.334;2023-06-10T08:03:25;99882.81;;;23.25;49.30
79780;BME280;69258;52.050;10.334;2023-06-10T08:18:27;99877.19;;;23.27;49.13
79780;BME280;69258;52.050;10.334;2023-06-10T08:33:29;99887.16;;;23.26;49.49
79780;BME280;69258;52.050;10.334;2023-06-10T08:48:31;99887.94;;;23.27;49.86
79780;BME280;69258;52.050;10.334;2023-06-10T09:03:37;99892.91;;;23.30;49.35
79780;BME280;69258;52.050;10.334;2023-06-10T09:18:39;99880.25;;;23.30;49.28
79780;BME280;69258;52.050;10.334;2023-06-10T09:33:41;99880.06;;;23.32;49.98
79780;BME280;69258;52.050;10.334;2023-06-10T09:48:44;99872.63;;;23.34;49.33
79780;BME280;69258;52.050;10.334;2023-06-10T10:03:47;99875.06;;;23.35;49.32
79780;BME280;69258;52.050;10.334;2023-06-10T10:18:54;99866.56;;;23.38;49.50
79780;BME280;69258;52.050;10.334;2023-06-10T10:34:00;99852.91;;;23.40;49.36
79780;BME280;69258;52.050;10.334;2023-06-10T10:49:03;99848.97;;;23.42;49.64
79780;BME280;69258;52.050;10.334;2023-06-10T11:04:07;99837.19;;;23.43;49.76
79780;BME280;69258;52.050;10.334;2023-06-10T11:19:09;99839.44;;;23.46;49.43
79780;BME280;69258;52.050;10.334;2023-06-10T11:34:12;99829.31;;;23.48;49.80
79780;BME280;69258;52.050;10.334;2023-06-10T11:49:14;99825.53;;;23.49;49.58
79780;BME280;69258;52.050;10.334;2023-06-10T12:04:17;99809.00;;;23.53;49.43
79780;BME280;69258;52.050;10.334;2023-06-10T12:19:18;99805.84;;;23.56;49.39
79780;BME280;69258;52.050;10.334;2023-06-10T12:34:37;99808.25;;;23.64;49.52
79780;BME280;69258;52.050;10.334;2023-06-10T12:49:39;99784.47;;;23.61;49.84
79780;BME280;69258;52.050;10.334;2023-06-10T13:04:40;99783.22;;;23.63;49.92
79780;BME280;69258;52.050;10.334;2023-06-10T13:19:42;99771.44;;;23.64;49.77
79780;BME280;69258;52.050;10.334;2023-06-10T13:34:44;99752.34;;;23.66;49.87
79780;BME280;69258;52.050;10.334;2023-06-10T13:49:46;99731.22;;;23.69;49.65
79780;BME280;69258;52.050;10.334;2023-06-10T14:04:47;99734.50;;;23.71;49.53
79780;BME280;69258;52.050;10.334;2023-06-10T14:19:49;99733.03;;;23.75;49.79
79780;BME280;69258;52.050;10.334;2023-06-10T14:34:51;99729.25;;;23.76;49.71
79780;BME280;69258;52.050;10.334;2023-06-10T14:49:53;99726.72;;;23.81;49.65
79780;BME280;69258;52.050;10.334;2023-06-10T15:04:54;99720.06;;;23.84;49.97
79780;BME280;69258;52.050;10.334;2023-06-10T15:19:56;99719.63;;;23.87;49.30
79780;BME280;69258;52.050;10.334;2023-06-10T15:34:58;99714.63;;;23.90;49.82
79780;BME280;69258;52.050;10.334;2023-06-10T15:50:00;99718.72;;;23.93;49.29
79780;BME280;69258;52.050;10.334;2023-06-10T16:05:01;99737.13;;;23.96;49.38
79780;BME280;69258;52.050;10.334;2023-06-10T16:20:04;99762.63;;;23.93;49.90
79780;BME280;69258;52.050;10.334;2023-06-10T16:35:06;99766.72;;;23.96;49.34
79780;BME280;69258;52.050;10.334;2023-06-10T16:50:09;99788.88;;;23.98;50.08
79780;BME280;69258;52.050;10.334;2023-06-10T17:05:11;99824.09;;;23.96;50.11
79780;BME280;69258;52.050;10.334;2023-06-10T17:20:16;99810.00;;;23.94;50.21
79780;BME280;69258;52.050;10.334;2023-06-10T17:35:18;99799.25;;;23.94;49.83
79780;BME280;69258;52.050;10.334;2023-06-10T17:50:19;99797.38;;;23.95;50.23
79780;BME280;69258;52.050;10.334;2023-06-10T18:05:21;99790.38;;;23.94;50.32
79780;BME280;69258;52.050;10.334;2023-06-10T18:20:23;99778.78;;;23.93;49.81
79780;BME280;69258;52.050;10.334;2023-06-10T18:35:25;99783.91;;;23.95;50.21
79780;BME280;69258;52.050;10.334;2023-06-10T18:50:27;99783.91;;;23.95;49.57
79780;BME280;69258;52.050;10.334;2023-06-10T19:05:28;99799.25;;;23.94;50.25
79780;BME280;69258;52.050;10.334;2023-06-10T19:20:30;99826.16;;;23.94;49.74
79780;BME280;69258;52.050;10.334;2023-06-10T19:35:32;99829.91;;;23.93;49.58
79780;BME280;69258;52.050;10.334;2023-06-10T19:50:34;99845.25;;;23.93;50.24
79780;BME280;69258;52.050;10.334;2023-06-10T20:05:35;99853.06;;;23.94;50.04
79780;BME280;69258;52.050;10.334;2023-06-10T20:20:37;99870.28;;;23.93;50.24
79780;BME280;69258;52.050;10.334;2023-06-10T20:35:39;99869.47;;;23.93;49.61
79780;BME280;69258;52.050;10.334;2023-06-10T20:50:40;99881.25;;;23.92;50.18
79780;BME280;69258;52.050;10.334;2023-06-10T21:05:42;99908.41;;;23.90;49.93
79780;BME280;69258;52.050;10.334;2023-06-10T21:20:44;99911.91;;;23.91;49.53
79780;BME280;69258;52.050;10.334;2023-06-10T21:35:46;99914.00;;;23.89;49.76
79780;BME280;69258;52.050;10.334;2023-06-10T21:50:48;99905.31;;;23.87;49.51
79780;BME280;69258;52.050;10.334;2023-06-10T22:05:49;99909.91;;;23.86;49.63
79780;BME280;69258;52.050;10.334;2023-06-10T22:20:51;99910.94;;;23.85;49.60
79780;BME280;69258;52.050;10.334;2023-06-10T22:35:53;99906.59;;;23.84;50.07
79780;BME280;69258;52.050;10.334;2023-06-10T22:50:55;99910.94;;;23.85;50.07
79780;BME280;69258;52.050;10.334;2023-06-10T23:05:56;99921.91;;;23.84;50.13
79780;BME280;69258;52.050;10.334;2023-06-10T23:20:58;99927.28;;;23.84;49.78
79780;BME280;69258;52.050;10.334;2023-06-10T23:36:00;99938.50;;;23.81;49.51
79780;BME280;69258;52.050;10.334;2023-06-10T23:51:02;99944.72;;;23.81;49.89
